Pagrindinis puslapis
METAR-TAF:

METAR-TAF

Oro uostai :

Ankona, Italija

platuma: 43-37N, ilguma: 013-22E, Aukštis: 12 m

Dabartinis oras

Ataskaita buvo paskelbta 53 minutes, ne 16:50 UTC
Vėjas 4 kt iš Šiaurės
Temperatūra 14°C
Drėgmė 72%
Slėgis 1027 hPa
Matomumas 10 km arba daugiau
nėra debesų žemiau 1500 m ir nėra kamuolinių lietaus debesų

METAR: LIPY 071650Z 01004KT CAVOK 14/09 Q1027

Laikas: 19:43 (17:43 UTC)

Prognozė

Ataskaita buvo paskelbta 43 minutes, ne 17:00 UTC
Prognozė galioja nuo 07 metu 18 UTC su 08 metu 18 UTC
Vėjas 5 kt nuo kintamojo kryptimis
Matomumas 10 km arba daugiau
nėra debesų žemiau 1500 m ir nėra kamuolinių lietaus debesų

TAF: LIPY 071700Z 0718/0818 VRB05KT CAVOK

Orai ataskaitas ir orų prognozės (METAR, TAF).

turimą stotys yra geltonos ir raudonos taškus žemėlapyje.

Perkelti pele per norėdami pamatyti stoties vardą.

Tada spustelėkite, norėdami matyti oro stebėjimo ir prognozės.

Norėdami pakeisti žemėlapį: spustelėkite ant žalios mygtukų su juodo kryžiaus žemyn,; žalią mygtuką su brūkšneliu, jei norite nutolinti; arba žalių rodyklių gretimoms žemėlapius.


METAR-TAF: